Time;durP1;ratioP1;P1;durP2;ratioP2;P2;SDS_P1;SDS_P2;PMS_P1;PMS_P2;Temp;Humidity;BMP_temperature;BMP_pressure;BME280_temperature;BME280_humidity;BME280_pressure;Samples;Min_cycle;Max_cycle;Signal;HPM_P1;HPM_P2
2022/01/12 00:00:56;;;;;;;8.13;6.23;;;;;;;-1.36;63.50;95416.72;6168682;23;20260;-62
2022/01/12 00:03:21;;;;;;;7.93;6.17;;;;;;;-1.38;63.77;95421.09;6166753;23;20178;-64
2022/01/12 00:05:47;;;;;;;7.23;6.13;;;;;;;-1.30;63.91;95433.66;6165488;23;20202;-61
2022/01/12 00:08:12;;;;;;;7.63;5.93;;;;;;;-1.27;63.37;95436.09;6193465;23;20217;-66
2022/01/12 00:10:38;;;;;;;6.63;5.67;;;;;;;-1.26;63.93;95436.91;6168557;23;20206;-62
2022/01/12 00:13:04;;;;;;;6.97;6.13;;;;;;;-1.28;63.96;95441.31;6167573;23;20250;-62
2022/01/12 00:15:30;;;;;;;7.03;6.00;;;;;;;-1.26;63.69;95430.00;6194956;23;20174;-65
2022/01/12 00:17:56;;;;;;;7.77;6.07;;;;;;;-1.20;62.69;95440.06;6194885;23;20225;-63
2022/01/12 00:20:21;;;;;;;6.90;6.20;;;;;;;-1.27;63.60;95440.41;6167755;23;20201;-64
2022/01/12 00:22:47;;;;;;;7.77;6.00;;;;;;;-1.27;64.06;95445.56;6167129;23;20253;-63
2022/01/12 00:33:16;;;;;;;7.37;6.40;;;;;;;-1.38;63.88;95459.78;6198182;23;20192;-63
2022/01/12 00:35:44;;;;;;;7.87;6.47;;;;;;;-1.34;64.07;95461.34;6196647;23;20216;-63
2022/01/12 00:38:11;;;;;;;7.23;6.43;;;;;;;-1.34;63.82;95461.34;6195430;23;20272;-63
2022/01/12 00:40:42;;;;;;;7.37;6.30;;;;;;;-1.51;64.73;95471.56;6170355;23;20208;-64
2022/01/12 00:43:09;;;;;;;8.07;6.73;;;;;;;-1.42;64.58;95467.72;6170476;23;20205;-67
2022/01/12 00:45:37;;;;;;;8.07;6.33;;;;;;;-1.31;63.88;95464.66;6194093;23;20178;-66
2022/01/12 00:48:04;;;;;;;8.97;6.70;;;;;;;-1.40;63.84;95469.34;6196687;23;20181;-65
2022/01/12 00:50:30;;;;;;;8.03;6.80;;;;;;;-1.59;64.38;95460.75;6170444;23;20202;-66
2022/01/12 00:52:55;;;;;;;9.07;6.47;;;;;;;-1.41;64.36;95459.09;6197197;23;20259;-65
2022/01/12 00:55:21;;;;;;;8.50;6.87;;;;;;;-1.41;63.92;95462.50;6170241;23;20206;-65
2022/01/12 00:57:47;;;;;;;8.80;7.17;;;;;;;-1.31;63.40;95449.19;6195873;23;20198;-67
2022/01/12 01:00:13;;;;;;;6.80;5.90;;;;;;;-1.36;63.12;95452.81;6168918;23;20194;-65
2022/01/12 01:02:38;;;;;;;7.73;6.13;;;;;;;-1.28;62.37;95447.31;6169270;23;20250;-65
2022/01/12 01:05:05;;;;;;;7.97;6.17;;;;;;;-1.24;62.35;95460.91;6195719;23;20198;-67
2022/01/12 01:07:30;;;;;;;8.10;6.27;;;;;;;-1.35;62.83;95451.06;6169487;23;20297;-69
2022/01/12 01:10:07;;;;;;;8.17;6.47;;;;;;;-1.46;63.68;95456.72;6171166;23;20202;-65
2022/01/12 01:12:35;;;;;;;7.23;5.87;;;;;;;-1.38;62.93;95456.38;6170262;23;20198;-66
2022/01/12 01:15:07;;;;;;;10.53;6.57;;;;;;;-1.44;62.63;95454.09;6170470;23;20178;-69
2022/01/12 01:25:37;;;;;;;7.73;6.40;;;;;;;-1.48;63.88;95448.19;6196868;23;20240;-66
2022/01/12 01:28:04;;;;;;;8.03;5.93;;;;;;;-1.36;63.67;95455.41;6170814;23;20201;-65
2022/01/12 01:30:31;;;;;;;7.87;6.03;;;;;;;-1.43;63.13;95464.31;6169892;23;20190;-64
2022/01/12 01:33:04;;;;;;;7.17;6.07;;;;;;;-1.41;63.43;95454.78;6196829;23;20182;-66
2022/01/12 01:35:31;;;;;;;8.10;6.10;;;;;;;-1.35;62.52;95451.91;6194279;23;20250;-64
2022/01/12 01:38:02;;;;;;;7.30;5.60;;;;;;;-1.37;63.33;95460.63;6195439;23;20205;-64
2022/01/12 01:40:33;;;;;;;7.23;5.80;;;;;;;-1.30;62.77;95451.72;6169100;23;20204;-64
2022/01/12 01:53:40;;;;;;;6.97;5.87;;;;;;;-1.19;62.16;95464.13;6195169;23;20209;-65
2022/01/12 01:56:06;;;;;;;8.77;6.17;;;;;;;-1.31;62.73;95467.25;6169013;23;20229;-65
2022/01/12 01:58:32;;;;;;;6.43;5.63;;;;;;;-1.28;62.41;95465.38;6170018;23;20326;-64
2022/01/12 02:00:58;;;;;;;7.17;5.30;;;;;;;-1.33;62.55;95454.44;6196329;23;20262;-65
2022/01/12 02:03:26;;;;;;;5.60;4.97;;;;;;;-1.28;63.06;95465.38;6170551;23;20186;-65
2022/01/12 02:05:52;;;;;;;6.10;5.17;;;;;;;-1.26;62.47;95475.63;6169388;23;20257;-65
2022/01/12 02:08:18;;;;;;;6.07;5.47;;;;;;;-1.19;62.45;95479.59;6163897;23;20249;-66
2022/01/12 02:10:43;;;;;;;7.53;5.57;;;;;;;-1.27;62.00;95468.78;6189540;23;20229;-65
2022/01/12 02:13:10;;;;;;;6.60;5.50;;;;;;;-1.27;62.01;95471.38;6164383;23;20191;-66
2022/01/12 02:15:37;;;;;;;6.83;5.67;;;;;;;-1.14;61.87;95477.66;6164951;23;20235;-66
2022/01/12 02:35:21;;;;;;;7.27;5.40;;;;;;;-1.14;61.54;95487.97;6134445;23;20205;-64
2022/01/12 02:40:40;;;;;;;7.40;6.07;;;;;;;-1.17;61.10;95494.09;6134919;23;20235;-66
2022/01/12 02:53:44;;;;;;;7.27;5.70;;;;;;;-1.43;61.61;95517.66;6134667;23;20202;-63
2022/01/12 02:56:19;;;;;;;6.40;5.13;;;;;;;-1.38;61.67;95519.13;6134603;23;20210;-64
2022/01/12 02:58:46;;;;;;;6.50;5.27;;;;;;;-1.35;61.66;95511.25;6132978;23;20207;-64
2022/01/12 03:04:08;;;;;;;8.00;5.33;;;;;;;-1.36;61.60;95519.06;6164069;23;20207;-67
2022/01/12 03:06:37;;;;;;;7.03;5.80;;;;;;;-1.36;61.63;95524.22;6161982;23;20193;-67
2022/01/12 03:09:06;;;;;;;6.67;5.73;;;;;;;-1.29;61.48;95524.78;6189328;23;20315;-65
2022/01/12 03:11:32;;;;;;;7.47;5.93;;;;;;;-1.35;61.69;95541.38;6163302;23;20198;-66
2022/01/12 03:13:57;;;;;;;7.30;5.73;;;;;;;-1.48;61.84;95532.47;6162125;23;20202;-65
2022/01/12 03:16:25;;;;;;;7.33;5.60;;;;;;;-1.36;61.41;95540.53;6162816;23;20253;-68
2022/01/12 03:18:58;;;;;;;6.97;5.80;;;;;;;-1.40;61.32;95538.97;6187981;23;20190;-64
2022/01/12 03:21:27;;;;;;;7.53;5.70;;;;;;;-1.36;61.90;95543.13;6164212;23;20190;-66
2022/01/12 03:23:52;;;;;;;8.27;6.10;;;;;;;-1.44;61.82;95546.94;6163671;23;20205;-68
2022/01/12 03:26:19;;;;;;;7.33;6.40;;;;;;;-1.47;61.58;95550.47;6162065;23;20202;-68
2022/01/12 03:28:52;;;;;;;7.10;5.70;;;;;;;-1.48;61.50;95541.06;6163574;23;20209;-65
2022/01/12 03:31:21;;;;;;;8.00;5.90;;;;;;;-1.50;61.45;95557.50;6188666;23;20201;-68
2022/01/12 03:39:04;;;;;;;8.47;6.10;;;;;;;-1.60;60.57;95555.31;6164971;23;20202;-66
2022/01/12 03:41:32;;;;;;;7.83;5.43;;;;;;;-1.80;61.78;95550.16;6162649;23;20194;-64
2022/01/12 03:43:59;;;;;;;6.87;6.17;;;;;;;-1.62;61.82;95558.88;6163421;23;20205;-66
2022/01/12 03:46:36;;;;;;;6.93;5.43;;;;;;;-1.68;61.95;95553.97;6163914;23;20198;-65
2022/01/12 03:49:02;;;;;;;7.97;6.07;;;;;;;-1.59;61.48;95569.06;6187774;23;20258;-65
2022/01/12 03:51:27;;;;;;;7.00;5.97;;;;;;;-1.57;61.31;95573.25;6163196;23;20171;-65
2022/01/12 03:53:53;;;;;;;8.60;5.97;;;;;;;-1.59;60.74;95572.47;6187491;23;20198;-66
2022/01/12 03:56:18;;;;;;;7.37;6.30;;;;;;;-1.56;61.21;95574.06;6187766;23;20207;-66
2022/01/12 03:58:44;;;;;;;7.23;6.03;;;;;;;-1.50;61.04;95584.13;6164738;23;20194;-66
2022/01/12 04:01:10;;;;;;;7.07;5.90;;;;;;;-1.57;61.37;95582.72;6187612;23;20206;-63
2022/01/12 04:03:42;;;;;;;7.30;6.23;;;;;;;-1.49;60.57;95578.06;6188242;23;20206;-67
2022/01/12 04:08:52;;;;;;;7.43;6.27;;;;;;;-1.53;60.40;95594.56;6186753;23;20213;-62
2022/01/12 04:11:18;;;;;;;8.43;6.20;;;;;;;-1.58;60.57;95596.50;6193803;23;20198;-66
2022/01/12 04:13:46;;;;;;;6.83;5.63;;;;;;;-1.59;61.24;95600.81;6194513;23;20205;-65
2022/01/12 04:16:12;;;;;;;7.17;5.60;;;;;;;-1.50;60.87;95612.50;6193861;23;20202;-66
2022/01/12 04:18:37;;;;;;;6.90;5.33;;;;;;;-1.53;60.93;95620.38;6167581;23;20186;-66
2022/01/12 04:21:07;;;;;;;8.97;6.53;;;;;;;-1.56;61.05;95615.34;6169516;23;20185;-66
2022/01/12 04:23:35;;;;;;;6.20;5.53;;;;;;;-1.50;60.54;95624.56;6168702;23;20205;-65
2022/01/12 04:26:04;;;;;;;7.10;5.67;;;;;;;-1.63;60.98;95619.06;6193241;23;20202;-63
2022/01/12 04:28:30;;;;;;;7.33;5.73;;;;;;;-1.60;60.59;95624.13;6192793;23;20213;-64
2022/01/12 04:30:56;;;;;;;7.03;5.87;;;;;;;-1.71;60.91;95616.81;6194052;23;20221;-64
2022/01/12 04:33:30;;;;;;;6.57;5.70;;;;;;;-1.50;60.17;95630.53;6168219;23;20201;-68
2022/01/12 04:35:56;;;;;;;7.53;5.47;;;;;;;-1.70;60.14;95633.13;6194115;23;20186;-66
2022/01/12 04:38:27;;;;;;;7.87;6.50;;;;;;;-1.56;60.99;95636.81;6194843;23;20205;-64
2022/01/12 04:40:52;;;;;;;7.23;5.87;;;;;;;-1.52;60.52;95631.50;6169161;23;20256;-64
2022/01/12 04:43:19;;;;;;;8.60;6.60;;;;;;;-1.65;60.44;95624.31;6193556;23;20194;-64
2022/01/12 04:46:08;;;;;;;8.40;5.67;;;;;;;-1.65;60.84;95632.03;6168449;23;20271;-64
2022/01/12 04:48:52;;;;;;;7.07;5.63;;;;;;;-1.62;60.10;95638.81;6193881;23;20200;-63
2022/01/12 04:51:19;;;;;;;6.63;5.33;;;;;;;-1.58;60.34;95630.03;6168523;23;20184;-65
2022/01/12 04:53:45;;;;;;;8.53;6.67;;;;;;;-1.56;60.64;95646.28;6167923;23;20198;-65
2022/01/12 04:56:10;;;;;;;8.03;6.50;;;;;;;-1.64;60.97;95646.59;6168244;23;20198;-66
2022/01/12 04:58:36;;;;;;;8.17;6.40;;;;;;;-1.60;60.79;95647.31;6193728;23;20212;-67
2022/01/12 05:01:21;;;;;;;6.80;6.03;;;;;;;-1.65;60.64;95649.25;6168578;23;20205;-64
2022/01/12 05:07:10;;;;;;;7.77;6.60;;;;;;;-1.67;60.93;95645.88;6193911;23;20247;-63
2022/01/12 05:14:56;;;;;;;8.90;6.23;;;;;;;-1.80;60.87;95666.16;6193109;23;20208;-65
2022/01/12 05:17:22;;;;;;;7.30;6.23;;;;;;;-1.68;60.99;95676.00;6169803;23;20260;-66
2022/01/12 05:19:47;;;;;;;7.50;6.27;;;;;;;-1.69;59.97;95678.63;6169853;23;20205;-65
2022/01/12 05:22:13;;;;;;;7.07;6.20;;;;;;;-1.64;60.63;95680.13;6169814;23;20194;-65
2022/01/12 05:24:38;;;;;;;9.90;6.30;;;;;;;-1.72;59.77;95684.75;6194791;23;20181;-66
2022/01/12 05:27:04;;;;;;;8.27;6.07;;;;;;;-1.73;60.09;95683.06;6195010;23;20193;-65
2022/01/12 05:29:29;;;;;;;7.63;5.60;;;;;;;-1.68;57.99;95690.63;6195157;23;20194;-66
2022/01/12 05:31:55;;;;;;;7.40;6.23;;;;;;;-1.93;59.27;95694.16;6196317;23;20194;-65
2022/01/12 05:34:21;;;;;;;6.80;5.67;;;;;;;-2.02;60.42;95686.78;6195800;23;20204;-64
2022/01/12 05:36:46;;;;;;;7.90;6.00;;;;;;;-1.87;59.76;95696.50;6167848;23;20228;-65
2022/01/12 05:39:12;;;;;;;7.03;5.53;;;;;;;-1.82;59.45;95702.34;6168641;23;20190;-67
2022/01/12 05:41:37;;;;;;;8.80;5.83;;;;;;;-1.79;58.49;95698.81;6168732;23;20198;-66
2022/01/12 05:44:06;;;;;;;7.70;5.97;;;;;;;-1.90;60.13;95709.50;6168729;23;20202;-65
2022/01/12 05:46:32;;;;;;;7.03;5.87;;;;;;;-1.98;59.43;95719.28;6193068;23;20209;-65
2022/01/12 05:51:43;;;;;;;6.93;5.87;;;;;;;-2.09;60.01;95714.53;6195079;23;20193;-65
2022/01/12 05:54:09;;;;;;;9.07;6.50;;;;;;;-2.15;60.67;95714.75;6169719;23;20188;-65
2022/01/12 05:56:35;;;;;;;8.30;5.80;;;;;;;-2.03;59.03;95714.31;6168353;23;20198;-66
2022/01/12 05:59:00;;;;;;;6.63;5.37;;;;;;;-2.27;59.84;95716.06;6166983;23;20209;-64
2022/01/12 06:01:26;;;;;;;7.23;6.17;;;;;;;-2.26;60.58;95732.38;6165269;23;20206;-61
2022/01/12 06:03:52;;;;;;;8.80;6.43;;;;;;;-2.11;60.14;95729.22;6192291;23;20198;-63
2022/01/12 06:06:17;;;;;;;7.37;6.10;;;;;;;-2.11;59.68;95741.25;6194973;23;20241;-65
2022/01/12 06:08:43;;;;;;;7.70;5.77;;;;;;;-2.14;59.58;95736.22;6193857;23;20214;-63
2022/01/12 06:11:08;;;;;;;6.70;5.77;;;;;;;-2.14;60.11;95746.53;6192688;23;20198;-63
2022/01/12 06:13:34;;;;;;;7.00;6.30;;;;;;;-2.14;60.34;95756.81;6167611;23;20236;-64
2022/01/12 06:15:59;;;;;;;8.13;6.27;;;;;;;-2.16;60.79;95758.63;6168571;23;20190;-63
2022/01/12 06:18:25;;;;;;;8.60;6.57;;;;;;;-2.10;60.39;95766.97;6168412;23;20186;-66
2022/01/12 06:20:51;;;;;;;6.63;5.53;;;;;;;-2.14;60.29;95761.97;6169075;23;20232;-66
2022/01/12 06:23:17;;;;;;;7.10;5.47;;;;;;;-2.25;60.67;95764.94;6169116;23;20194;-65
2022/01/12 06:25:43;;;;;;;7.07;5.67;;;;;;;-2.10;60.12;95779.03;6168469;23;20194;-65
2022/01/12 06:28:22;;;;;;;7.90;6.07;;;;;;;-2.07;60.05;95771.16;6168818;23;20249;-64
2022/01/12 06:33:31;;;;;;;8.53;6.40;;;;;;;-2.08;59.92;95782.38;6192812;23;20233;-64
2022/01/12 06:35:57;;;;;;;7.10;6.23;;;;;;;-2.03;60.39;95791.63;6193134;23;20174;-65
2022/01/12 06:38:22;;;;;;;7.73;5.80;;;;;;;-1.95;59.79;95788.75;6191817;23;20194;-63
2022/01/12 06:40:48;;;;;;;7.53;6.37;;;;;;;-1.90;60.41;95791.16;6167895;23;20230;-64
2022/01/12 06:43:13;;;;;;;7.33;6.33;;;;;;;-1.79;59.96;95789.88;6169103;23;20217;-64
2022/01/12 06:45:40;;;;;;;8.50;6.33;;;;;;;-1.82;58.99;95796.84;6194695;23;20174;-63
2022/01/12 06:48:06;;;;;;;8.50;7.03;;;;;;;-1.79;58.75;95800.19;6193900;23;20190;-64
2022/01/12 06:50:31;;;;;;;9.07;6.63;;;;;;;-1.85;58.66;95804.72;6168223;23;20194;-63
2022/01/12 06:52:57;;;;;;;11.57;7.10;;;;;;;-1.81;58.71;95804.53;6168922;23;20209;-63
2022/01/12 06:55:22;;;;;;;10.73;6.83;;;;;;;-1.66;58.09;95799.69;6168254;23;20194;-62
2022/01/12 06:57:48;;;;;;;11.77;6.47;;;;;;;-1.71;58.90;95806.75;6194591;23;20205;-64
2022/01/12 07:00:14;;;;;;;7.47;6.23;;;;;;;-1.66;58.62;95810.00;6170176;23;20182;-62
2022/01/12 07:02:39;;;;;;;8.47;6.33;;;;;;;-1.74;57.71;95805.13;6168529;23;20255;-63
2022/01/12 07:05:05;;;;;;;7.63;6.33;;;;;;;-1.71;57.87;95822.22;6194149;23;20225;-63
2022/01/12 07:07:31;;;;;;;8.57;6.53;;;;;;;-1.80;58.26;95824.25;6167938;23;20269;-63
2022/01/12 07:09:56;;;;;;;7.90;6.43;;;;;;;-1.67;57.95;95828.97;6193669;23;20261;-63
2022/01/12 07:12:22;;;;;;;7.60;6.00;;;;;;;-1.60;56.62;95815.78;6169235;23;20209;-62
2022/01/12 07:14:47;;;;;;;7.27;5.70;;;;;;;-1.88;56.56;95821.13;6167821;23;20252;-62
2022/01/12 07:17:13;;;;;;;9.27;6.70;;;;;;;-1.83;57.18;95826.13;6169425;23;20270;-62
2022/01/12 07:19:39;;;;;;;9.00;7.00;;;;;;;-1.82;57.86;95827.78;6168855;23;20194;-62
2022/01/12 07:22:04;;;;;;;8.07;5.70;;;;;;;-1.79;57.72;95841.44;6193403;23;20206;-61
2022/01/12 07:24:30;;;;;;;7.87;5.93;;;;;;;-1.79;58.26;95840.59;6167380;23;20201;-63
2022/01/12 07:26:55;;;;;;;8.87;5.87;;;;;;;-1.70;58.34;95850.53;6194486;23;20189;-63
2022/01/12 07:29:21;;;;;;;6.90;5.70;;;;;;;-1.76;58.44;95845.63;6163995;23;20259;-63
2022/01/12 07:31:46;;;;;;;6.07;5.33;;;;;;;-1.61;56.66;95846.78;6167550;23;20190;-61
2022/01/12 07:34:15;;;;;;;8.37;5.60;;;;;;;-1.66;56.90;95846.09;6193236;23;20198;-64
2022/01/12 07:36:44;;;;;;;8.50;6.00;;;;;;;-1.64;57.34;95841.75;6168078;23;20205;-61
2022/01/12 07:39:10;;;;;;;6.57;5.63;;;;;;;-1.48;56.88;95853.16;6167818;23;20185;-63
2022/01/12 07:41:36;;;;;;;8.00;5.37;;;;;;;-1.69;57.30;95862.53;6165393;23;20260;-63
2022/01/12 07:44:02;;;;;;;9.47;5.63;;;;;;;-1.64;56.60;95847.72;6190846;23;20202;-63
2022/01/12 07:46:28;;;;;;;8.13;6.47;;;;;;;-1.87;56.64;95850.31;6167759;23;20201;-62
2022/01/12 07:48:53;;;;;;;7.40;6.13;;;;;;;-1.68;56.77;95848.75;6167304;23;20201;-62
2022/01/12 07:51:19;;;;;;;6.83;5.40;;;;;;;-1.57;56.53;95851.78;6169032;23;20202;-62
2022/01/12 07:53:45;;;;;;;7.33;5.67;;;;;;;-1.26;56.10;95854.91;6168296;23;20205;-63
2022/01/12 07:56:10;;;;;;;9.57;5.80;;;;;;;-1.12;55.23;95857.81;6193152;23;20205;-62
2022/01/12 07:58:36;;;;;;;6.07;5.20;;;;;;;-1.00;54.88;95857.28;6167845;23;20202;-63
2022/01/12 08:01:01;;;;;;;6.73;5.03;;;;;;;-0.92;53.54;95865.56;6168681;23;20198;-62
2022/01/12 08:03:27;;;;;;;6.77;4.90;;;;;;;-0.97;53.59;95872.66;6167671;23;20197;-62
2022/01/12 08:05:52;;;;;;;5.67;5.00;;;;;;;-0.89;53.84;95872.34;6194506;23;20230;-62
2022/01/12 08:08:18;;;;;;;6.40;4.87;;;;;;;-0.74;53.75;95883.81;6168753;23;20232;-67
2022/01/12 08:10:44;;;;;;;8.00;4.83;;;;;;;-0.84;53.92;95882.50;6193556;23;20241;-63
2022/01/12 08:13:09;;;;;;;5.87;5.00;;;;;;;-0.76;51.69;95883.88;6194303;23;20190;-63
2022/01/12 08:15:35;;;;;;;6.87;5.27;;;;;;;-0.95;53.02;95891.53;6167653;23;20182;-63
2022/01/12 08:18:01;;;;;;;12.47;8.37;;;;;;;-0.78;52.66;95887.41;6194451;23;20174;-63
2022/01/12 08:20:28;;;;;;;6.40;4.67;;;;;;;-0.80;53.14;95881.47;6193170;23;20218;-61
2022/01/12 08:22:54;;;;;;;8.80;4.10;;;;;;;-0.40;52.28;95896.19;6166824;23;20230;-63
2022/01/12 08:25:20;;;;;;;5.50;4.70;;;;;;;-0.35;51.31;95888.22;6191732;23;20190;-63
2022/01/12 08:27:46;;;;;;;5.27;4.13;;;;;;;-0.05;51.24;95892.13;6167378;23;20221;-63
2022/01/12 08:30:17;;;;;;;6.53;4.63;;;;;;;0.08;50.78;95895.03;6168678;23;20173;-62
2022/01/12 08:32:50;;;;;;;5.83;4.70;;;;;;;0.24;50.00;95894.31;6191213;23;20194;-62
2022/01/12 08:35:17;;;;;;;4.93;4.27;;;;;;;0.05;50.33;95902.88;6167859;23;20265;-64
2022/01/12 08:37:43;;;;;;;6.33;4.40;;;;;;;0.25;50.17;95896.03;6167382;23;20202;-64
2022/01/12 08:40:17;;;;;;;7.03;4.20;;;;;;;0.30;49.98;95899.25;6168247;23;20216;-65
2022/01/12 08:42:43;;;;;;;5.13;4.13;;;;;;;0.37;49.22;95898.88;6192191;23;20260;-64
2022/01/12 08:45:15;;;;;;;6.07;4.63;;;;;;;0.34;49.53;95895.59;6193065;23;20225;-64
2022/01/12 08:47:41;;;;;;;6.67;4.87;;;;;;;0.32;49.87;95903.44;6167899;23;20218;-64
2022/01/12 08:50:08;;;;;;;6.23;4.83;;;;;;;0.19;49.63;95891.97;6169215;23;20263;-61
2022/01/12 08:52:34;;;;;;;5.83;4.93;;;;;;;0.12;49.75;95901.72;6194892;23;20201;-61
2022/01/12 08:55:00;;;;;;;5.50;4.60;;;;;;;0.34;49.96;95896.44;6169374;23;20246;-61
2022/01/12 08:57:30;;;;;;;7.20;4.00;;;;;;;0.34;49.91;95895.59;6170276;23;20225;-61
2022/01/12 09:00:00;;;;;;;4.73;4.10;;;;;;;0.35;49.46;95895.56;6195372;23;20183;-62
2022/01/12 09:02:26;;;;;;;3.87;3.43;;;;;;;0.20;49.43;95901.38;6168595;23;20194;-62
2022/01/12 09:04:52;;;;;;;7.00;4.37;;;;;;;0.10;50.27;95897.53;6165877;23;20186;-64
2022/01/12 09:07:18;;;;;;;5.33;4.27;;;;;;;0.19;49.82;95903.16;6167590;23;20201;-61
2022/01/12 09:09:43;;;;;;;6.63;3.70;;;;;;;0.07;49.65;95902.84;6195235;23;20198;-64
2022/01/12 09:12:09;;;;;;;4.77;4.20;;;;;;;-0.07;48.87;95899.09;6169943;23;20182;-64
2022/01/12 09:14:35;;;;;;;4.90;3.73;;;;;;;-0.61;49.74;95900.50;6169819;23;20198;-66
2022/01/12 09:17:01;;;;;;;4.40;3.73;;;;;;;-0.73;49.92;95888.91;6169567;23;20305;-65
2022/01/12 09:19:27;;;;;;;4.83;3.97;;;;;;;-0.69;51.19;95887.06;6170480;23;20249;-60
2022/01/12 09:21:56;;;;;;;4.90;3.87;;;;;;;-1.05;50.59;95885.03;6194024;23;20257;-63
2022/01/12 09:24:22;;;;;;;7.10;3.80;;;;;;;-1.01;52.71;95894.34;6169759;23;20182;-62
2022/01/12 09:26:49;;;;;;;4.90;3.60;;;;;;;-0.94;52.95;95884.59;6195384;23;20251;-63
2022/01/12 09:29:14;;;;;;;3.97;3.57;;;;;;;-0.73;51.47;95895.81;6194321;23;20194;-65
2022/01/12 09:31:40;;;;;;;5.03;3.70;;;;;;;-0.61;52.21;95892.75;6195180;23;20198;-67
2022/01/12 09:34:06;;;;;;;4.93;3.90;;;;;;;-0.30;51.38;95886.31;6169371;23;20190;-62
2022/01/12 09:36:32;;;;;;;6.20;4.53;;;;;;;-0.26;50.52;95890.44;6170040;23;20190;-64
2022/01/12 09:38:58;;;;;;;5.50;3.23;;;;;;;-0.48;50.09;95888.75;6170666;23;20182;-63
2022/01/12 09:41:25;;;;;;;5.53;3.70;;;;;;;-0.80;51.33;95884.91;6194219;23;20288;-63
2022/01/12 09:43:52;;;;;;;4.47;3.80;;;;;;;-1.06;51.15;95896.28;6168390;23;20198;-63
2022/01/12 09:46:19;;;;;;;5.47;4.50;;;;;;;-1.25;52.48;95890.16;6195037;23;20198;-62
2022/01/12 09:48:45;;;;;;;4.73;3.33;;;;;;;-1.01;53.00;95896.94;6168965;23;20212;-62
2022/01/12 09:51:10;;;;;;;4.40;3.33;;;;;;;-1.03;51.87;95890.97;6169365;23;20237;-64
2022/01/12 09:53:38;;;;;;;3.97;3.30;;;;;;;-0.83;52.94;95897.09;6168818;23;20229;-62
2022/01/12 09:56:12;;;;;;;7.73;3.70;;;;;;;-0.63;51.81;95886.81;6194483;23;20208;-62
2022/01/12 09:58:37;;;;;;;6.93;4.40;;;;;;;-0.49;52.06;95894.81;6194008;23;20194;-64
2022/01/12 10:01:03;;;;;;;4.53;3.47;;;;;;;-0.35;51.44;95898.56;6168675;23;20201;-61
2022/01/12 10:03:29;;;;;;;4.20;3.30;;;;;;;-0.39;50.28;95904.78;6168539;23;20190;-62
2022/01/12 10:05:55;;;;;;;3.70;3.27;;;;;;;-0.41;50.28;95904.84;6193385;23;20209;-61
2022/01/12 10:08:21;;;;;;;3.80;3.13;;;;;;;-0.43;49.92;95901.47;6192354;23;20217;-61
2022/01/12 10:11:08;;;;;;;4.50;3.17;;;;;;;-0.51;51.22;95899.22;6194318;23;20204;-62
2022/01/12 10:13:33;;;;;;;4.53;3.30;;;;;;;-0.58;50.73;95895.22;6193470;23;20216;-61
2022/01/12 10:16:16;;;;;;;3.47;3.17;;;;;;;-0.38;50.51;95902.13;6167834;23;20202;-62
2022/01/12 10:18:53;;;;;;;4.30;3.40;;;;;;;-0.23;50.23;95901.50;6166172;23;20190;-62
2022/01/12 10:21:37;;;;;;;3.97;3.30;;;;;;;-0.52;49.90;95889.78;6192340;23;20185;-63
2022/01/12 10:24:10;;;;;;;5.33;3.73;;;;;;;-0.45;51.63;95900.72;6167849;23;20189;-61
2022/01/12 10:26:42;;;;;;;4.63;4.00;;;;;;;-0.42;51.04;95902.34;6167230;23;20206;-61
2022/01/12 10:29:14;;;;;;;4.37;3.50;;;;;;;-0.51;49.83;95895.78;6193423;23;20253;-60
2022/01/12 10:31:45;;;;;;;4.03;3.57;;;;;;;-0.79;50.41;95898.66;6169967;23;20202;-62
2022/01/12 10:34:11;;;;;;;5.07;3.67;;;;;;;-0.50;50.81;95908.66;6194654;23;20217;-62
2022/01/12 10:36:42;;;;;;;4.93;3.53;;;;;;;-0.26;51.83;95891.28;6168055;23;20189;-64
2022/01/12 10:39:13;;;;;;;4.17;3.77;;;;;;;-0.21;50.70;95898.84;6166480;23;20232;-62
2022/01/12 10:41:53;;;;;;;6.73;4.20;;;;;;;-0.20;50.67;95895.34;6165374;23;20213;-63
2022/01/12 10:44:20;;;;;;;4.57;3.53;;;;;;;-0.22;50.39;95884.22;6191266;23;20260;-63
2022/01/12 10:46:46;;;;;;;4.60;3.93;;;;;;;-0.21;50.96;95878.16;6192421;23;20215;-64
2022/01/12 10:49:19;;;;;;;4.70;3.50;;;;;;;-0.09;49.67;95879.38;6167679;23;20190;-63
2022/01/12 10:51:54;;;;;;;5.47;4.00;;;;;;;-0.31;49.18;95874.28;6166968;23;20197;-63
2022/01/12 10:54:19;;;;;;;4.30;3.80;;;;;;;-0.27;48.91;95881.88;6168767;23;20209;-63
2022/01/12 10:56:45;;;;;;;4.30;3.30;;;;;;;-0.26;48.29;95883.53;6167520;23;20205;-63
2022/01/12 10:59:19;;;;;;;4.50;3.70;;;;;;;-0.29;49.33;95885.41;6193815;23;20202;-63
2022/01/12 11:01:44;;;;;;;6.10;3.67;;;;;;;-0.16;49.11;95891.75;6166678;23;20233;-63
2022/01/12 11:04:11;;;;;;;5.10;3.33;;;;;;;-0.33;48.87;95889.03;6193501;23;20202;-63
2022/01/12 11:06:36;;;;;;;3.20;2.90;;;;;;;-0.36;48.59;95889.97;6193069;23;20182;-63
2022/01/12 11:09:03;;;;;;;4.13;3.20;;;;;;;-0.47;49.04;95885.25;6168981;23;20207;-63
2022/01/12 11:11:29;;;;;;;3.57;3.07;;;;;;;-0.38;50.10;95884.03;6167013;23;20198;-63
2022/01/12 11:13:55;;;;;;;4.37;3.40;;;;;;;-0.22;49.08;95892.81;6192352;23;20233;-63
2022/01/12 11:16:26;;;;;;;6.33;3.23;;;;;;;-0.16;48.30;95888.28;6191095;23;20213;-62
2022/01/12 11:18:54;;;;;;;3.73;3.03;;;;;;;-0.39;48.43;95881.53;6192860;23;20190;-62
2022/01/12 11:21:26;;;;;;;3.47;2.93;;;;;;;-0.33;48.69;95887.28;6168985;23;20185;-65
2022/01/12 11:23:57;;;;;;;4.20;3.30;;;;;;;-0.35;48.61;95886.50;6194925;23;20190;-62
2022/01/12 11:26:28;;;;;;;4.17;3.60;;;;;;;-0.31;48.25;95889.81;6194488;23;20209;-62
2022/01/12 11:28:55;;;;;;;4.83;3.37;;;;;;;-0.32;49.95;95885.53;6193654;23;20206;-61
2022/01/12 11:31:29;;;;;;;5.10;3.73;;;;;;;-0.06;48.43;95892.16;6194118;23;20190;-63
2022/01/12 11:33:55;;;;;;;6.00;3.27;;;;;;;0.09;47.88;95881.16;6194270;23;20197;-61
2022/01/12 11:36:28;;;;;;;5.17;3.33;;;;;;;-0.20;48.17;95892.75;6194876;23;20178;-62
2022/01/12 11:39:05;;;;;;;5.33;3.50;;;;;;;-0.01;48.07;95890.22;6168931;23;20229;-60
2022/01/12 11:41:33;;;;;;;4.60;3.53;;;;;;;0.08;48.71;95894.16;6168781;23;20204;-65
2022/01/12 11:44:04;;;;;;;3.43;3.00;;;;;;;0.01;47.50;95900.53;6169170;23;20249;-62
2022/01/12 11:47:10;;;;;;;3.73;3.13;;;;;;;-0.11;47.75;95900.13;6168682;23;20197;-62
2022/01/12 11:49:36;;;;;;;3.70;3.03;;;;;;;-0.13;47.48;95908.88;6050598;23;20208;-63
2022/01/12 11:52:26;;;;;;;7.77;3.60;;;;;;;0.07;48.17;95901.06;6074826;23;20290;-62
2022/01/12 11:54:53;;;;;;;3.50;3.20;;;;;;;0.06;47.19;95906.34;6075353;23;20196;-62
2022/01/12 11:57:34;;;;;;;3.57;3.13;;;;;;;0.12;46.80;95906.06;6051918;23;20191;-64
2022/01/12 12:00:08;;;;;;;4.27;3.37;;;;;;;0.07;48.56;95913.19;6052379;23;20236;-63
2022/01/12 12:02:35;;;;;;;3.47;3.13;;;;;;;0.20;47.52;95909.16;6074555;23;20222;-62
2022/01/12 12:05:07;;;;;;;2.60;2.40;;;;;;;0.17;46.21;95911.88;6074341;23;20224;-62
2022/01/12 12:07:43;;;;;;;3.13;2.57;;;;;;;0.09;46.74;95907.03;6049864;23;20223;-62
2022/01/12 12:10:14;;;;;;;3.23;2.80;;;;;;;0.33;46.06;95906.88;6072559;23;20240;-63
2022/01/12 12:12:40;;;;;;;3.57;2.80;;;;;;;0.43;45.50;95903.81;6050180;23;20181;-65
2022/01/12 12:15:08;;;;;;;4.30;2.63;;;;;;;0.64;45.16;95911.50;6074794;23;20203;-62
2022/01/12 12:17:37;;;;;;;2.93;2.63;;;;;;;0.71;46.03;95909.47;6075467;23;20201;-61
2022/01/12 12:20:08;;;;;;;3.60;2.63;;;;;;;0.97;45.25;95906.53;6074746;23;20211;-61
2022/01/12 12:22:38;;;;;;;5.23;2.70;;;;;;;0.78;45.11;95914.31;6090513;23;20260;-65
2022/01/12 12:25:12;;;;;;;3.93;3.33;;;;;;;0.57;46.30;95912.69;6169750;23;20198;-61
2022/01/12 12:27:44;;;;;;;5.37;3.23;;;;;;;0.30;45.50;95910.44;6169979;23;20247;-61
2022/01/12 12:30:15;;;;;;;4.00;3.50;;;;;;;0.27;48.04;95909.69;6170332;23;20213;-62
2022/01/12 12:32:46;;;;;;;4.93;3.43;;;;;;;0.35;47.64;95898.13;6196481;23;20252;-62
2022/01/12 12:35:24;;;;;;;4.37;3.13;;;;;;;0.52;46.14;95909.47;6171281;23;20265;-62
2022/01/12 12:38:01;;;;;;;3.47;3.03;;;;;;;0.47;46.48;95906.25;6195849;23;20198;-62
2022/01/12 12:40:36;;;;;;;6.07;3.53;;;;;;;0.46;46.35;95909.75;6195616;23;20197;-63
2022/01/12 12:43:22;;;;;;;3.30;3.00;;;;;;;0.47;45.20;95914.84;6195739;23;20251;-63
2022/01/12 12:45:59;;;;;;;3.97;3.27;;;;;;;0.47;45.87;95911.44;6195270;23;20247;-64
2022/01/12 12:48:34;;;;;;;4.57;3.43;;;;;;;0.24;45.96;95910.69;6169307;23;20205;-64
2022/01/12 12:51:04;;;;;;;4.03;3.23;;;;;;;0.33;46.40;95909.47;6170391;23;20229;-64
2022/01/12 12:53:31;;;;;;;3.40;3.10;;;;;;;0.33;46.20;95909.47;6170035;23;20228;-64
2022/01/12 12:55:58;;;;;;;4.43;3.80;;;;;;;0.24;46.50;95913.25;6168951;23;20198;-67
2022/01/12 12:58:34;;;;;;;4.30;3.20;;;;;;;0.39;46.30;95912.59;6193689;23;20204;-65
2022/01/12 13:01:11;;;;;;;5.47;3.80;;;;;;;0.34;45.96;95904.19;6169607;23;20236;-65